Time,TemperatureF,DewpointF,PressureIn,WindDirection,WindDirectionDegrees,WindSpeedMPH,WindSpeedGustMPH,Humidity,HourlyPrecipIn,Conditions,Clouds,dailyrainin,SolarRadiationWatts/m^2,SoftwareType,DateUTC
2013-05-12 00:01:00,46.0,25.0,-100.00,SW,216,5.0,9.0,44,0.00,,,0.00,0.000000,,2013-05-12 06:01:00,
2013-05-12 00:11:00,46.0,25.0,-100.00,SW,216,5.0,9.0,44,0.00,,,0.00,0.000000,,2013-05-12 06:11:00,
2013-05-12 00:42:00,46.0,25.0,-100.00,SW,232,7.0,13.0,44,0.00,,,0.00,0.000000,,2013-05-12 06:42:00,
2013-05-12 00:52:00,46.0,25.0,-100.00,SW,232,7.0,13.0,44,0.00,,,0.00,0.000000,,2013-05-12 06:52:00,
2013-05-12 01:01:00,46.0,25.0,-100.00,SW,232,7.0,13.0,44,0.00,,,0.00,0.000000,,2013-05-12 07:01:00,
2013-05-12 01:11:00,46.0,25.0,-100.00,SW,232,7.0,13.0,44,0.00,,,0.00,0.000000,,2013-05-12 07:11:00,
2013-05-12 02:32:00,43.0,26.0,-100.00,West,260,2.0,10.0,51,-99.99,,,0.00,0.000000,,2013-05-12 08:32:00,
2013-05-12 02:42:00,43.0,26.0,-100.00,West,260,2.0,10.0,51,-99.99,,,0.00,0.000000,,2013-05-12 08:42:00,
2013-05-12 02:53:00,43.0,26.0,-100.00,West,260,2.0,10.0,51,-99.99,,,0.00,0.000000,,2013-05-12 08:53:00,
2013-05-12 03:01:00,43.0,26.0,-100.00,West,260,2.0,10.0,51,-99.99,,,0.00,0.000000,,2013-05-12 09:01:00,
2013-05-12 03:11:00,43.0,26.0,-100.00,West,260,2.0,10.0,51,-99.99,,,0.00,0.000000,,2013-05-12 09:11:00,
2013-05-12 03:33:00,44.0,27.0,-100.00,WSW,246,1.0,4.0,51,0.00,,,0.00,0.000000,,2013-05-12 09:33:00,
2013-05-12 03:43:00,44.0,27.0,-100.00,WSW,246,1.0,4.0,51,0.00,,,0.00,0.000000,,2013-05-12 09:43:00,
2013-05-12 03:53:00,44.0,27.0,-100.00,WSW,246,1.0,4.0,51,0.00,,,0.00,0.000000,,2013-05-12 09:53:00,
2013-05-12 04:03:00,44.0,27.0,-100.00,WSW,246,1.0,4.0,51,0.00,,,0.00,0.000000,,2013-05-12 10:03:00,
2013-05-12 04:12:00,44.0,27.0,-100.00,WSW,246,1.0,4.0,51,0.00,,,0.00,0.000000,,2013-05-12 10:12:00,
2013-05-12 04:33:00,54.0,28.0,-100.00,NW,311,5.0,9.0,37,0.00,,,0.00,0.000000,,2013-05-12 10:33:00,
2013-05-12 04:42:00,54.0,28.0,-100.00,NW,311,5.0,9.0,37,0.00,,,0.00,0.000000,,2013-05-12 10:42:00,
2013-05-12 04:52:00,54.0,28.0,-100.00,NW,311,5.0,9.0,37,0.00,,,0.00,0.000000,,2013-05-12 10:52:00,
2013-05-12 05:02:00,54.0,28.0,-100.00,NW,311,5.0,9.0,37,0.00,,,0.00,0.000000,,2013-05-12 11:02:00,
2013-05-12 05:12:00,54.0,28.0,-100.00,NW,311,5.0,9.0,37,0.00,,,0.00,0.000000,,2013-05-12 11:12:00,
2013-05-12 05:32:00,55.0,28.0,-100.00,WNW,293,3.0,11.0,35,0.00,,,0.00,0.000000,,2013-05-12 11:32:00,
2013-05-12 05:42:00,55.0,28.0,-100.00,WNW,293,3.0,11.0,35,0.00,,,0.00,0.000000,,2013-05-12 11:42:00,
2013-05-12 05:52:00,55.0,28.0,-100.00,WNW,293,3.0,11.0,35,0.00,,,0.00,0.000000,,2013-05-12 11:52:00,
2013-05-12 06:02:00,55.0,28.0,-100.00,WNW,293,3.0,11.0,35,0.00,,,0.00,0.000000,,2013-05-12 12:02:00,
2013-05-12 06:11:00,55.0,28.0,-100.00,WNW,293,3.0,11.0,35,0.00,,,0.00,0.000000,,2013-05-12 12:11:00,
2013-05-12 07:42:00,57.0,34.0,-100.00,ENE,76,2.0,7.0,41,-99.99,,,0.00,128.000000,,2013-05-12 13:42:00,
2013-05-12 07:52:00,57.0,34.0,-100.00,ENE,76,2.0,7.0,41,-99.99,,,0.00,128.000000,,2013-05-12 13:52:00,
2013-05-12 08:01:00,57.0,34.0,-100.00,ENE,76,2.0,7.0,41,-99.99,,,0.00,128.000000,,2013-05-12 14:01:00,
2013-05-12 08:11:00,57.0,34.0,-100.00,ENE,76,2.0,7.0,41,-99.99,,,0.00,128.000000,,2013-05-12 14:11:00,
2013-05-12 08:42:00,61.0,34.0,-100.00,ENE,60,3.0,8.0,36,0.00,,,0.00,252.000000,,2013-05-12 14:42:00,
2013-05-12 08:52:00,61.0,34.0,-100.00,ENE,60,3.0,8.0,36,0.00,,,0.00,252.000000,,2013-05-12 14:52:00,
2013-05-12 09:01:00,61.0,34.0,-100.00,ENE,60,3.0,8.0,36,0.00,,,0.00,252.000000,,2013-05-12 15:01:00,
2013-05-12 09:11:00,61.0,34.0,-100.00,ENE,60,3.0,8.0,36,0.00,,,0.00,252.000000,,2013-05-12 15:11:00,
2013-05-12 09:34:00,64.0,35.0,-100.00,East,94,4.0,7.0,34,0.00,,,-99.99,63.000000,,2013-05-12 15:34:00,
2013-05-12 09:42:00,64.0,35.0,-100.00,East,94,4.0,7.0,34,0.00,,,-99.99,63.000000,,2013-05-12 15:42:00,
2013-05-12 09:53:00,64.0,35.0,-100.00,East,94,4.0,7.0,34,0.00,,,-99.99,63.000000,,2013-05-12 15:53:00,
2013-05-12 10:02:00,64.0,35.0,-100.00,East,94,4.0,7.0,34,0.00,,,-99.99,63.000000,,2013-05-12 16:02:00,
2013-05-12 10:12:00,64.0,35.0,-100.00,East,94,4.0,7.0,34,0.00,,,-99.99,63.000000,,2013-05-12 16:12:00,
2013-05-12 10:33:00,67.0,35.0,-100.00,SE,134,4.0,8.0,30,0.00,,,0.00,419.000000,,2013-05-12 16:33:00,
2013-05-12 10:42:00,67.0,35.0,-100.00,SE,134,4.0,8.0,30,0.00,,,0.00,419.000000,,2013-05-12 16:42:00,
2013-05-12 10:53:00,67.0,35.0,-100.00,SE,134,4.0,8.0,30,0.00,,,0.00,419.000000,,2013-05-12 16:53:00,
2013-05-12 11:02:00,67.0,35.0,-100.00,SE,134,4.0,8.0,30,0.00,,,0.00,419.000000,,2013-05-12 17:02:00,
2013-05-12 11:12:00,67.0,35.0,-100.00,SE,134,4.0,8.0,30,0.00,,,0.00,419.000000,,2013-05-12 17:12:00,
2013-05-12 11:42:00,68.0,34.0,-100.00,SE,145,4.0,10.0,28,0.00,,,0.00,814.000000,,2013-05-12 17:42:00,
2013-05-12 11:53:00,68.0,34.0,-100.00,SE,145,4.0,10.0,28,0.00,,,0.00,814.000000,,2013-05-12 17:53:00,
2013-05-12 12:01:00,68.0,34.0,-100.00,SE,145,4.0,10.0,28,0.00,,,0.00,814.000000,,2013-05-12 18:01:00,
2013-05-12 12:12:00,68.0,34.0,-100.00,SE,145,4.0,10.0,28,0.00,,,0.00,814.000000,,2013-05-12 18:12:00,
2013-05-12 12:32:00,67.0,33.0,-100.00,ESE,104,7.0,15.0,28,0.00,,,0.00,930.000000,,2013-05-12 18:32:00,
2013-05-12 12:42:00,67.0,33.0,-100.00,ESE,104,7.0,15.0,28,0.00,,,0.00,930.000000,,2013-05-12 18:42:00,
2013-05-12 12:52:00,67.0,33.0,-100.00,ESE,104,7.0,15.0,28,0.00,,,0.00,930.000000,,2013-05-12 18:52:00,
2013-05-12 13:01:00,67.0,33.0,-100.00,ESE,104,7.0,15.0,28,0.00,,,0.00,930.000000,,2013-05-12 19:01:00,
2013-05-12 13:11:00,67.0,33.0,-100.00,ESE,104,7.0,15.0,28,0.00,,,0.00,930.000000,,2013-05-12 19:11:00,
2013-05-12 13:32:00,68.0,35.0,-100.00,ESE,112,7.0,14.0,29,0.00,,,0.00,976.000000,,2013-05-12 19:32:00,
2013-05-12 13:42:00,68.0,35.0,-100.00,ESE,112,7.0,14.0,29,0.00,,,0.00,976.000000,,2013-05-12 19:42:00,
2013-05-12 13:52:00,68.0,35.0,-100.00,ESE,112,7.0,14.0,29,0.00,,,0.00,976.000000,,2013-05-12 19:52:00,
2013-05-12 14:02:00,68.0,35.0,-100.00,ESE,112,7.0,14.0,29,0.00,,,0.00,976.000000,,2013-05-12 20:02:00,
2013-05-12 14:11:00,68.0,35.0,-100.00,ESE,112,7.0,14.0,29,0.00,,,0.00,976.000000,,2013-05-12 20:11:00,
2013-05-12 14:42:00,68.0,34.0,-100.00,SE,146,6.0,16.0,28,0.00,,,0.00,962.000000,,2013-05-12 20:42:00,
2013-05-12 14:52:00,68.0,34.0,-100.00,SE,146,6.0,16.0,28,0.00,,,0.00,962.000000,,2013-05-12 20:52:00,
2013-05-12 15:01:00,68.0,34.0,-100.00,SE,146,6.0,16.0,28,0.00,,,0.00,962.000000,,2013-05-12 21:01:00,
2013-05-12 15:11:00,68.0,34.0,-100.00,SE,146,6.0,16.0,28,0.00,,,0.00,962.000000,,2013-05-12 21:11:00,
2013-05-12 15:33:00,71.0,35.0,-100.00,SSE,152,4.0,15.0,27,0.00,,,0.00,913.000000,,2013-05-12 21:33:00,
2013-05-12 15:42:00,71.0,35.0,-100.00,SSE,152,4.0,15.0,27,0.00,,,0.00,913.000000,,2013-05-12 21:42:00,
2013-05-12 15:53:00,71.0,35.0,-100.00,SSE,152,4.0,15.0,27,0.00,,,0.00,913.000000,,2013-05-12 21:53:00,
2013-05-12 16:02:00,71.0,35.0,-100.00,SSE,152,4.0,15.0,27,0.00,,,0.00,913.000000,,2013-05-12 22:02:00,
2013-05-12 16:12:00,71.0,35.0,-100.00,SSE,152,4.0,15.0,27,0.00,,,0.00,913.000000,,2013-05-12 22:12:00,
2013-05-12 16:33:00,70.0,36.0,-100.00,SE,132,5.0,17.0,29,0.00,,,0.00,742.000000,,2013-05-12 22:33:00,
2013-05-12 16:42:00,70.0,36.0,-100.00,SE,132,5.0,17.0,29,0.00,,,0.00,742.000000,,2013-05-12 22:42:00,
2013-05-12 16:52:00,70.0,36.0,-100.00,SE,132,5.0,17.0,29,0.00,,,0.00,742.000000,,2013-05-12 22:52:00,
2013-05-12 17:02:00,70.0,36.0,-100.00,SE,132,5.0,17.0,29,0.00,,,0.00,742.000000,,2013-05-12 23:02:00,
2013-05-12 17:12:00,70.0,36.0,-100.00,SE,132,5.0,17.0,29,0.00,,,0.00,742.000000,,2013-05-12 23:12:00,
2013-05-12 17:42:00,67.0,36.0,-100.00,SE,135,4.0,15.0,32,0.00,,,0.00,517.000000,,2013-05-12 23:42:00,
2013-05-12 17:52:00,67.0,36.0,-100.00,SE,135,4.0,15.0,32,0.00,,,0.00,517.000000,,2013-05-12 23:52:00,
2013-05-12 18:01:00,67.0,36.0,-100.00,SE,135,4.0,15.0,32,0.00,,,0.00,517.000000,,2013-05-13 00:01:00,
2013-05-12 18:11:00,67.0,36.0,-100.00,SE,135,4.0,15.0,32,0.00,,,0.00,517.000000,,2013-05-13 00:11:00,
2013-05-12 19:42:00,64.0,37.0,-100.00,South,179,2.0,7.0,36,-99.99,,,0.00,109.000000,,2013-05-13 01:42:00,
2013-05-12 19:52:00,64.0,37.0,-100.00,South,179,2.0,7.0,36,-99.99,,,0.00,109.000000,,2013-05-13 01:52:00,
2013-05-12 20:01:00,64.0,37.0,-100.00,South,179,2.0,7.0,36,-99.99,,,0.00,109.000000,,2013-05-13 02:01:00,
2013-05-12 20:11:00,64.0,37.0,-100.00,South,179,2.0,7.0,36,-99.99,,,0.00,109.000000,,2013-05-13 02:11:00,
2013-05-12 20:32:00,62.0,37.0,-100.00,SW,227,5.0,9.0,39,0.00,,,0.00,22.000000,,2013-05-13 02:32:00,
2013-05-12 20:42:00,62.0,37.0,-100.00,SW,227,5.0,9.0,39,0.00,,,0.00,22.000000,,2013-05-13 02:42:00,
2013-05-12 20:52:00,62.0,37.0,-100.00,SW,227,5.0,9.0,39,0.00,,,0.00,22.000000,,2013-05-13 02:52:00,
2013-05-12 21:02:00,62.0,37.0,-100.00,SW,227,5.0,9.0,39,0.00,,,0.00,22.000000,,2013-05-13 03:02:00,
2013-05-12 21:11:00,62.0,37.0,-100.00,SW,227,5.0,9.0,39,0.00,,,0.00,22.000000,,2013-05-13 03:11:00,
2013-05-12 21:33:00,62.0,36.0,-100.00,SW,219,6.0,13.0,38,0.00,,,0.00,0.000000,,2013-05-13 03:33:00,
2013-05-12 21:42:00,62.0,36.0,-100.00,SW,219,6.0,13.0,38,0.00,,,0.00,0.000000,,2013-05-13 03:42:00,
2013-05-12 21:53:00,62.0,36.0,-100.00,SW,219,6.0,13.0,38,0.00,,,0.00,0.000000,,2013-05-13 03:53:00,
2013-05-12 22:02:00,62.0,36.0,-100.00,SW,219,6.0,13.0,38,0.00,,,0.00,0.000000,,2013-05-13 04:02:00,
2013-05-12 22:12:00,62.0,36.0,-100.00,SW,219,6.0,13.0,38,0.00,,,0.00,0.000000,,2013-05-13 04:12:00,
2013-05-12 22:33:00,62.0,34.0,-100.00,SW,230,8.0,14.0,35,0.00,,,0.00,0.000000,,2013-05-13 04:33:00,
2013-05-12 22:42:00,62.0,34.0,-100.00,SW,230,8.0,14.0,35,0.00,,,0.00,0.000000,,2013-05-13 04:42:00,
2013-05-12 22:53:00,62.0,34.0,-100.00,SW,230,8.0,14.0,35,0.00,,,0.00,0.000000,,2013-05-13 04:53:00,
2013-05-12 23:02:00,62.0,34.0,-100.00,SW,230,8.0,14.0,35,0.00,,,0.00,0.000000,,2013-05-13 05:02:00,
2013-05-12 23:12:00,62.0,34.0,-100.00,SW,230,8.0,14.0,35,0.00,,,0.00,0.000000,,2013-05-13 05:12:00,
2013-05-12 23:42:00,62.0,33.0,-100.00,SSW,209,5.0,15.0,34,0.00,,,0.00,0.000000,,2013-05-13 05:42:00,
2013-05-12 23:52:00,62.0,33.0,-100.00,SSW,209,5.0,15.0,34,0.00,,,0.00,0.000000,,2013-05-13 05:52:00,